Terminal Aerodrome Forecast
Issued by NWS

Home | Current Version | Previous Version | Text Only | Print | Product List | Glossary On
Versions: 1 2 3 4 5 6 7 8 9 10 11 12 13 14 15
762
FTUS44 KMAF 211120
TAFCNM
TAF
KCNM 211120Z 2112/2212 14005KT P6SM SCT200
     FM211600 25020G30KT P6SM SCT200
     FM211900 26035G50KT 3SM BLDU SKC
     FM220100 28014G20KT P6SM SKC=

USA.gov is the U.S. government's official web portal to all federal, state and local government web resources and services.